Scott, Indiana
Current Conditions -  °F | °C
As of 2:35 PM on Saturday 25 Oct 2014 (Local Time) from KANQ Reporting Station
NA  
Wind Chill: 66°   Ceiling: NA
Heat Index: 66°   Visibility: NA
Dew Point: 52°   Wind: 18mph
Humidity: 60%   Direction: 270°W
Pressure: 29.86"   Gusts: NA
Location:  41.6594°N, 85.0055°W
Report Text: KANQ 251835Z AUTO 27016KT 19/11 A2986 RMK
Loading
Personal Weather Stations






























Interactive Weather Map
Tropical Storm Tracking
New forecast layout! Learn more

10-Day Weather Forecast

Advertisements
Track Severe Weather on mobile